createdAt,value
2022-09-10T00:01:17.498Z,5.00
2022-09-10T00:03:20.130Z,5.27
2022-09-10T00:05:22.696Z,5.63
2022-09-10T00:07:25.258Z,5.30
2022-09-10T00:09:27.790Z,5.33
2022-09-10T00:11:32.045Z,5.20
2022-09-10T00:13:35.133Z,6.37
2022-09-10T00:15:40.078Z,5.33
2022-09-10T00:17:43.064Z,4.70
2022-09-10T00:19:45.607Z,5.60
2022-09-10T00:21:50.308Z,5.20
2022-09-10T00:23:52.852Z,4.83
2022-09-10T00:25:55.675Z,5.70
2022-09-10T00:28:00.811Z,5.53
2022-09-10T00:30:03.941Z,5.13
2022-09-10T00:32:07.010Z,5.10
2022-09-10T00:34:10.239Z,4.97
2022-09-10T00:36:16.603Z,5.63
2022-09-10T00:38:19.504Z,5.10
2022-09-10T00:40:22.041Z,5.80
2022-09-10T00:42:25.725Z,4.73
2022-09-10T00:44:52.545Z,4.70
2022-09-10T00:46:56.601Z,5.10
2022-09-10T00:49:00.158Z,5.00
2022-09-10T00:51:04.231Z,4.87
2022-09-10T00:53:09.047Z,4.87
2022-09-10T00:55:11.886Z,5.03
2022-09-10T00:57:16.758Z,4.77
2022-09-10T00:59:20.253Z,4.73
2022-09-10T01:01:23.145Z,4.53
2022-09-10T01:03:29.244Z,5.50
2022-09-10T01:05:31.843Z,5.20
2022-09-10T01:07:34.796Z,5.47
2022-09-10T01:09:37.697Z,4.70
2022-09-10T01:11:48.842Z,5.10
2022-09-10T01:14:01.831Z,4.40
2022-09-10T01:16:09.031Z,4.70
2022-09-10T01:18:20.159Z,5.60
2022-09-10T01:20:41.310Z,5.37
2022-09-10T01:22:54.912Z,5.10
2022-09-10T01:24:57.583Z,4.70
2022-09-10T01:27:18.129Z,4.63
2022-09-10T01:29:24.722Z,4.60
2022-09-10T01:31:31.319Z,4.63
2022-09-10T01:33:35.697Z,5.47
2022-09-10T01:35:40.483Z,4.77
2022-09-10T01:37:44.285Z,4.33
2022-09-10T01:39:47.294Z,4.47
2022-09-10T01:41:49.953Z,5.10
2022-09-10T01:43:52.523Z,4.63
2022-09-10T01:46:03.801Z,4.07
2022-09-10T01:48:19.055Z,4.47
2022-09-10T01:50:24.145Z,4.80
2022-09-10T01:52:29.021Z,4.40
2022-09-10T01:54:38.329Z,4.60
2022-09-10T01:56:43.354Z,3.90
2022-09-10T01:58:45.951Z,4.40
2022-09-10T02:00:52.298Z,4.50
2022-09-10T02:02:58.830Z,4.70
2022-09-10T02:05:01.519Z,4.90
2022-09-10T02:07:05.042Z,4.87
2022-09-10T02:09:07.611Z,3.63
2022-09-10T02:11:11.730Z,4.30
2022-09-10T02:13:14.302Z,4.00
2022-09-10T02:15:17.067Z,3.90
2022-09-10T02:17:20.156Z,4.10
2022-09-10T02:19:24.002Z,3.60
2022-09-10T02:21:26.728Z,3.60
2022-09-10T02:23:31.562Z,3.77
2022-09-10T02:25:35.019Z,3.87
2022-09-10T02:27:38.205Z,3.90
2022-09-10T02:29:40.775Z,3.73
2022-09-10T02:31:43.812Z,3.60
2022-09-10T02:33:46.723Z,4.57
2022-09-10T02:35:51.960Z,3.73
2022-09-10T02:37:54.549Z,4.00
2022-09-10T02:39:57.129Z,4.00
2022-09-10T02:42:00.215Z,3.80
2022-09-10T02:44:03.340Z,4.37
2022-09-10T02:46:07.443Z,3.73
2022-09-10T02:48:10.028Z,3.80
2022-09-10T02:50:13.089Z,3.93
2022-09-10T02:52:17.389Z,3.63
2022-09-10T02:54:20.962Z,4.17
2022-09-10T02:56:23.987Z,3.50
2022-09-10T02:58:26.969Z,4.00
2022-09-10T03:00:31.800Z,3.63
2022-09-10T03:02:34.352Z,3.60
2022-09-10T03:04:36.933Z,4.07
2022-09-10T03:06:40.806Z,4.00
2022-09-10T03:08:44.670Z,3.90
2022-09-10T03:10:47.251Z,4.00
2022-09-10T03:12:49.821Z,3.30
2022-09-10T03:14:53.358Z,4.30
2022-09-10T03:16:56.835Z,4.03
2022-09-10T03:18:59.417Z,3.60
2022-09-10T03:21:09.143Z,3.43
2022-09-10T03:23:12.245Z,3.90
2022-09-10T03:25:16.133Z,3.20
2022-09-10T03:27:20.453Z,3.90
2022-09-10T03:29:24.420Z,3.57
2022-09-10T03:31:28.033Z,3.77
2022-09-10T03:33:30.847Z,3.50
2022-09-10T03:35:33.432Z,2.90
2022-09-10T03:37:36.183Z,3.10
2022-09-10T03:39:38.797Z,3.50
2022-09-10T03:41:42.691Z,3.63
2022-09-10T03:43:45.231Z,3.63
2022-09-10T03:45:49.131Z,3.77
2022-09-10T03:47:51.933Z,3.13
2022-09-10T03:49:56.109Z,3.47
2022-09-10T03:51:58.684Z,3.47
2022-09-10T03:54:02.492Z,3.80
2022-09-10T03:56:05.134Z,3.23
2022-09-10T03:58:08.996Z,3.43
2022-09-10T04:00:12.898Z,3.30
2022-09-10T04:02:15.564Z,3.40
2022-09-10T04:04:18.500Z,3.43
2022-09-10T04:06:21.068Z,3.30
2022-09-10T04:08:23.636Z,2.97
2022-09-10T04:10:26.473Z,3.10
2022-09-10T04:12:30.414Z,3.03
2022-09-10T04:14:34.427Z,3.33
2022-09-10T04:16:37.359Z,2.90
2022-09-10T04:18:40.170Z,2.90
2022-09-10T04:20:43.525Z,3.57
2022-09-10T04:22:46.347Z,3.40
2022-09-10T04:24:48.957Z,3.10
2022-09-10T04:26:52.159Z,3.03
2022-09-10T04:28:54.745Z,3.37
2022-09-10T04:30:59.574Z,3.17
2022-09-10T04:33:02.500Z,3.73
2022-09-10T04:35:06.425Z,3.57
2022-09-10T04:37:09.005Z,3.30
2022-09-10T04:39:11.646Z,3.33
2022-09-10T04:41:15.437Z,4.10
2022-09-10T04:43:18.821Z,3.10
2022-09-10T04:45:21.419Z,3.23
2022-09-10T04:47:25.338Z,4.20
2022-09-10T04:49:27.914Z,3.80
2022-09-10T04:51:30.459Z,3.30
2022-09-10T04:53:34.336Z,4.60
2022-09-10T04:55:37.028Z,3.73
2022-09-10T04:57:39.979Z,4.40
2022-09-10T04:59:42.576Z,3.90
2022-09-10T05:01:45.116Z,3.60
2022-09-10T05:03:48.937Z,4.27
2022-09-10T05:05:51.987Z,3.70
2022-09-10T05:07:54.579Z,3.83
2022-09-10T05:09:57.327Z,4.33
2022-09-10T05:12:00.975Z,4.50
2022-09-10T05:14:03.736Z,4.23
2022-09-10T05:16:06.590Z,3.93
2022-09-10T05:18:09.407Z,4.73
2022-09-10T05:20:13.881Z,4.20
2022-09-10T05:22:16.457Z,4.27
2022-09-10T05:24:19.238Z,4.50
2022-09-10T05:26:21.812Z,4.83
2022-09-10T05:28:24.803Z,4.90
2022-09-10T05:30:32.530Z,4.73
2022-09-10T05:32:35.151Z,4.40
2022-09-10T05:34:39.687Z,4.47
2022-09-10T05:36:43.537Z,5.00
2022-09-10T05:38:46.518Z,4.50
2022-09-10T05:40:49.239Z,4.37
2022-09-10T05:42:52.113Z,4.50
2022-09-10T05:44:56.967Z,4.67
2022-09-10T05:46:59.672Z,4.20
2022-09-10T05:49:06.064Z,4.20
2022-09-10T05:51:09.005Z,4.67
2022-09-10T05:53:12.992Z,4.50
2022-09-10T05:55:15.585Z,4.33
2022-09-10T05:57:18.144Z,3.70
2022-09-10T05:59:21.446Z,4.60
2022-09-10T06:01:24.050Z,4.43
2022-09-10T06:03:26.622Z,4.90
2022-09-10T06:05:29.217Z,4.80
2022-09-10T06:07:32.318Z,4.20
2022-09-10T06:09:36.248Z,4.67
2022-09-10T06:11:38.799Z,4.20
2022-09-10T06:13:42.225Z,4.10
2022-09-10T06:15:44.921Z,4.53
2022-09-10T06:17:48.114Z,4.60
2022-09-10T06:19:51.850Z,4.30
2022-09-10T06:21:54.868Z,4.30
2022-09-10T06:23:57.442Z,4.53
2022-09-10T06:26:04.223Z,4.73
2022-09-10T06:28:06.798Z,4.87
2022-09-10T06:30:10.119Z,4.50
2022-09-10T06:32:12.669Z,5.10
2022-09-10T06:34:18.834Z,4.57
2022-09-10T06:36:21.425Z,4.30
2022-09-10T06:38:24.290Z,4.40
2022-09-10T06:40:27.658Z,4.60
2022-09-10T06:42:32.067Z,4.27
2022-09-10T06:44:34.633Z,4.10
2022-09-10T06:49:03.226Z,5.07
2022-09-10T06:51:07.945Z,4.23
2022-09-10T06:53:11.510Z,5.23
2022-09-10T06:55:14.547Z,4.73
2022-09-10T06:57:17.800Z,3.83
2022-09-10T06:59:21.770Z,3.80
2022-09-10T07:01:25.567Z,3.97
2022-09-10T07:03:28.148Z,5.20
2022-09-10T07:05:33.544Z,4.17
2022-09-10T07:07:36.340Z,4.20
2022-09-10T07:09:39.309Z,4.80
2022-09-10T07:11:42.132Z,4.20
2022-09-10T07:13:44.761Z,4.63
2022-09-10T07:15:49.378Z,4.87
2022-09-10T07:17:51.926Z,4.07
2022-09-10T07:19:54.464Z,4.43
2022-09-10T07:21:57.127Z,4.70
2022-09-10T07:24:01.284Z,4.10
2022-09-10T07:26:05.082Z,4.00
2022-09-10T07:28:12.987Z,4.70
2022-09-10T07:30:16.484Z,4.40
2022-09-10T07:32:20.369Z,4.33
2022-09-10T07:34:23.693Z,4.50
2022-09-10T07:36:26.566Z,4.23
2022-09-10T07:38:29.643Z,4.30
2022-09-10T07:40:32.665Z,5.07
2022-09-10T07:42:37.284Z,4.37
2022-09-10T07:44:39.843Z,4.00
2022-09-10T07:46:42.435Z,4.77
2022-09-10T07:48:48.456Z,3.83
2022-09-10T07:50:51.046Z,4.47
2022-09-10T07:52:53.722Z,4.50
2022-09-10T07:54:56.316Z,4.47
2022-09-10T07:56:59.190Z,4.83
2022-09-10T07:59:02.770Z,4.53
2022-09-10T08:01:09.056Z,4.63
2022-09-10T08:03:11.844Z,4.90
2022-09-10T08:05:16.863Z,5.00
2022-09-10T08:07:19.448Z,4.57
2022-09-10T08:09:22.468Z,4.33
2022-09-10T08:11:25.227Z,4.53
2022-09-10T08:13:29.932Z,3.93
2022-09-10T08:15:32.524Z,4.97
2022-09-10T08:17:36.174Z,5.43
2022-09-10T08:19:39.434Z,4.80
2022-09-10T08:21:45.191Z,5.37
2022-09-10T08:23:50.765Z,5.30
2022-09-10T08:25:53.295Z,5.13
2022-09-10T08:27:56.083Z,5.20
2022-09-10T08:29:58.663Z,4.63
2022-09-10T08:32:01.664Z,5.17
2022-09-10T08:34:04.279Z,4.97
2022-09-10T08:36:07.936Z,5.00
2022-09-10T08:38:12.660Z,4.97
2022-09-10T08:40:15.405Z,4.80
2022-09-10T08:42:20.214Z,4.17
2022-09-10T08:44:31.587Z,4.60
2022-09-10T08:46:38.082Z,4.53
2022-09-10T08:48:41.082Z,5.07
2022-09-10T08:50:46.968Z,4.03
2022-09-10T08:52:54.430Z,5.10
2022-09-10T08:55:01.577Z,3.90
2022-09-10T08:57:04.271Z,4.63
2022-09-10T08:59:11.426Z,4.30
2022-09-10T09:01:18.713Z,4.67
2022-09-10T09:03:26.201Z,4.40
2022-09-10T09:05:29.801Z,4.30
2022-09-10T09:07:37.518Z,5.13
2022-09-10T09:09:40.384Z,4.30
2022-09-10T09:11:47.543Z,4.60
2022-09-10T09:13:57.969Z,4.73
2022-09-10T09:16:06.908Z,5.10
2022-09-10T09:18:15.475Z,4.70
2022-09-10T09:20:19.135Z,4.53
2022-09-10T09:22:22.636Z,4.33
2022-09-10T09:24:26.552Z,4.60
2022-09-10T09:26:32.157Z,4.30
2022-09-10T09:28:37.878Z,5.13
2022-09-10T09:30:41.975Z,4.37
2022-09-10T09:32:45.283Z,3.77
2022-09-10T09:34:50.436Z,3.80
2022-09-10T09:36:54.057Z,4.47
2022-09-10T09:38:56.928Z,3.97
2022-09-10T09:41:01.804Z,3.60
2022-09-10T09:43:12.152Z,3.80
2022-09-10T09:45:23.334Z,5.43
2022-09-10T09:47:26.121Z,4.13
2022-09-10T09:49:29.302Z,4.03
2022-09-10T09:51:35.307Z,4.00
2022-09-10T09:53:37.953Z,4.40
2022-09-10T09:55:41.198Z,4.37
2022-09-10T09:57:44.251Z,4.70
2022-09-10T09:59:47.074Z,4.60
2022-09-10T10:01:51.813Z,7.90
2022-09-10T10:03:58.541Z,4.10
2022-09-10T10:06:02.006Z,4.03
2022-09-10T10:08:04.555Z,4.90
2022-09-10T10:10:08.385Z,4.03
2022-09-10T10:12:19.491Z,4.07
2022-09-10T10:14:25.264Z,4.20
2022-09-10T10:16:35.551Z,4.33
2022-09-10T10:18:39.547Z,4.10
2022-09-10T10:20:42.628Z,4.00
2022-09-10T10:23:00.636Z,3.80
2022-09-10T10:25:06.800Z,4.20
2022-09-10T10:27:15.388Z,4.43
2022-09-10T10:29:18.581Z,4.30
2022-09-10T10:31:21.192Z,4.13
2022-09-10T10:33:27.517Z,5.60
2022-09-10T10:35:33.817Z,4.90
2022-09-10T10:37:39.340Z,4.40
2022-09-10T10:39:54.174Z,4.90
2022-09-10T10:41:59.732Z,4.00
2022-09-10T10:44:12.638Z,4.60
2022-09-10T10:46:18.069Z,4.60
2022-09-10T10:48:24.870Z,4.67
2022-09-10T10:50:33.510Z,4.47
2022-09-10T10:52:40.591Z,4.77
2022-09-10T10:54:51.638Z,4.17
2022-09-10T10:56:57.386Z,4.47
2022-09-10T10:59:06.606Z,4.70
2022-09-10T11:01:15.029Z,4.67
2022-09-10T11:03:23.372Z,3.90
2022-09-10T11:05:27.768Z,4.47
2022-09-10T11:07:34.710Z,4.50
2022-09-10T11:09:40.910Z,4.10
2022-09-10T11:11:52.546Z,4.30
2022-09-10T11:13:57.079Z,4.50
2022-09-10T11:16:01.713Z,4.90
2022-09-10T11:18:11.664Z,4.30
2022-09-10T11:20:28.311Z,5.40
2022-09-10T11:22:33.630Z,6.53
2022-09-10T11:24:41.063Z,5.80
2022-09-10T11:26:44.751Z,5.00
2022-09-10T11:28:52.091Z,4.10
2022-09-10T11:30:57.722Z,5.03
2022-09-10T11:33:01.516Z,4.60
2022-09-10T11:35:08.530Z,5.33
2022-09-10T11:37:14.589Z,5.00
2022-09-10T11:39:20.177Z,4.73
2022-09-10T11:41:24.209Z,4.60
2022-09-10T11:43:39.746Z,5.00
2022-09-10T11:45:46.721Z,5.80
2022-09-10T11:47:51.323Z,4.93
2022-09-10T11:49:58.016Z,5.17
2022-09-10T11:52:00.865Z,5.87
2022-09-10T11:54:03.921Z,5.90
2022-09-10T11:56:20.250Z,5.30
2022-09-10T11:58:24.216Z,6.90
2022-09-10T12:00:26.956Z,7.83
2022-09-10T12:02:50.115Z,5.80
2022-09-10T12:04:56.127Z,5.93
2022-09-10T12:07:02.516Z,6.33
2022-09-10T12:09:09.277Z,6.10
2022-09-10T12:11:19.261Z,6.57
2022-09-10T12:13:22.452Z,6.37
2022-09-10T12:15:26.291Z,6.90
2022-09-10T12:17:30.115Z,7.03
2022-09-10T12:19:36.015Z,6.43
2022-09-10T12:21:40.141Z,6.13
2022-09-10T12:23:43.695Z,7.07
2022-09-10T12:25:46.637Z,5.70
2022-09-10T12:27:51.588Z,7.67
2022-09-10T12:29:54.513Z,6.30
2022-09-10T12:32:16.835Z,7.17
2022-09-10T12:34:20.059Z,6.10
2022-09-10T12:36:49.347Z,6.90
2022-09-10T12:38:56.293Z,5.90
2022-09-10T12:40:59.286Z,7.00
2022-09-10T12:43:39.688Z,6.00
2022-09-10T12:46:01.272Z,6.90
2022-09-10T12:48:08.561Z,6.47
2022-09-10T12:50:20.591Z,6.47
2022-09-10T12:52:25.160Z,7.30
2022-09-10T12:54:34.176Z,6.63
2022-09-10T12:56:41.807Z,6.60
2022-09-10T12:58:56.663Z,6.83
2022-09-10T13:01:06.391Z,6.97
2022-09-10T13:03:11.304Z,7.20
2022-09-10T13:05:25.402Z,7.17
2022-09-10T13:07:32.179Z,7.10
2022-09-10T13:09:36.654Z,6.80
2022-09-10T13:11:39.228Z,7.17
2022-09-10T13:13:43.588Z,7.33
2022-09-10T13:15:50.371Z,7.87
2022-09-10T13:18:13.550Z,7.60
2022-09-10T13:20:30.047Z,7.10
2022-09-10T13:22:46.488Z,6.23
2022-09-10T13:25:01.086Z,6.27
2022-09-10T13:27:04.985Z,6.70
2022-09-10T13:29:11.183Z,6.40
2022-09-10T13:31:20.044Z,6.60
2022-09-10T13:33:25.711Z,6.90
2022-09-10T13:35:53.607Z,7.20
2022-09-10T13:38:07.485Z,7.00
2022-09-10T13:40:37.889Z,6.37
2022-09-10T13:42:54.745Z,5.97
2022-09-10T13:45:06.199Z,5.53
2022-09-10T13:47:13.821Z,6.17
2022-09-10T13:49:19.803Z,5.70
2022-09-10T13:51:26.215Z,5.90
2022-09-10T13:53:29.258Z,5.93
2022-09-10T13:55:32.005Z,5.57
2022-09-10T13:57:36.506Z,5.13
2022-09-10T13:59:39.132Z,5.17
2022-09-10T14:01:49.122Z,5.00
2022-09-10T14:03:53.375Z,5.40
2022-09-10T14:05:57.647Z,4.50
2022-09-10T14:08:02.628Z,5.30
2022-09-10T14:10:06.000Z,4.70
2022-09-10T14:12:09.245Z,4.67
2022-09-10T14:14:12.652Z,4.80
2022-09-10T14:16:18.134Z,4.83
2022-09-10T14:18:21.136Z,5.17
2022-09-10T14:20:25.748Z,5.13
2022-09-10T14:22:28.681Z,5.30
2022-09-10T14:24:33.434Z,5.10
2022-09-10T14:26:36.557Z,5.20
2022-09-10T14:28:50.278Z,4.60
2022-09-10T14:30:54.351Z,4.23
2022-09-10T14:32:57.029Z,4.30
2022-09-10T14:35:03.631Z,4.47
2022-09-10T14:37:26.356Z,4.57
2022-09-10T14:39:28.919Z,4.00
2022-09-10T14:41:32.875Z,3.70
2022-09-10T14:43:37.917Z,4.43
2022-09-10T14:45:42.178Z,4.13
2022-09-10T14:47:52.364Z,4.20
2022-09-10T14:49:56.986Z,4.20
2022-09-10T14:51:59.868Z,4.50
2022-09-10T14:54:03.742Z,4.60
2022-09-10T14:56:09.595Z,3.90
2022-09-10T14:58:13.255Z,4.53
2022-09-10T15:00:16.583Z,4.03
2022-09-10T15:02:22.675Z,4.27
2022-09-10T15:04:27.040Z,4.27
2022-09-10T15:06:31.571Z,3.83
2022-09-10T15:08:34.161Z,3.97
2022-09-10T15:10:38.331Z,3.90
2022-09-10T15:12:42.662Z,4.10
2022-09-10T15:14:45.805Z,3.93
2022-09-10T15:16:53.981Z,4.50
2022-09-10T15:18:58.234Z,4.30
2022-09-10T15:21:01.460Z,4.60
2022-09-10T15:23:04.039Z,4.00
2022-09-10T15:25:11.303Z,3.70
2022-09-10T15:27:15.671Z,4.60
2022-09-10T15:29:19.197Z,4.27
2022-09-10T15:31:23.310Z,4.77
2022-09-10T15:33:26.571Z,3.80
2022-09-10T15:35:29.548Z,3.80
2022-09-10T15:37:32.595Z,4.67
2022-09-10T15:39:41.704Z,4.23
2022-09-10T15:41:45.144Z,3.77
2022-09-10T15:43:49.481Z,3.90
2022-09-10T15:45:56.681Z,4.47
2022-09-10T15:47:59.604Z,4.20
2022-09-10T15:50:02.265Z,3.90
2022-09-10T15:52:04.896Z,4.17
2022-09-10T15:54:07.793Z,3.40
2022-09-10T15:56:11.378Z,3.87
2022-09-10T15:58:13.960Z,3.27
2022-09-10T16:00:18.404Z,3.73
2022-09-10T16:02:21.048Z,4.47
2022-09-10T16:04:25.013Z,3.97
2022-09-10T16:06:30.468Z,4.13
2022-09-10T16:08:33.447Z,4.37
2022-09-10T16:10:39.557Z,4.73
2022-09-10T16:12:42.444Z,4.43
2022-09-10T16:14:46.545Z,4.47
2022-09-10T16:16:51.081Z,4.73
2022-09-10T16:18:53.937Z,5.30
2022-09-10T16:20:56.485Z,4.90
2022-09-10T16:22:59.480Z,4.53
2022-09-10T16:25:07.119Z,4.33
2022-09-10T16:27:09.817Z,4.37
2022-09-10T16:29:14.417Z,4.60
2022-09-10T16:31:18.808Z,4.33
2022-09-10T16:33:23.004Z,4.67
2022-09-10T16:35:26.378Z,4.60
2022-09-10T16:37:29.986Z,4.07
2022-09-10T16:39:32.574Z,4.40
2022-09-10T16:41:35.444Z,4.63
2022-09-10T16:43:38.184Z,4.27
2022-09-10T16:45:50.208Z,4.60
2022-09-10T16:47:54.171Z,4.97
2022-09-10T16:49:58.048Z,4.80
2022-09-10T16:52:00.619Z,4.87
2022-09-10T16:54:04.073Z,4.33
2022-09-10T16:56:09.251Z,4.40
2022-09-10T16:58:12.218Z,4.50
2022-09-10T17:00:16.340Z,4.47
2022-09-10T17:02:19.207Z,3.97
2022-09-10T17:04:27.782Z,4.77
2022-09-10T17:06:39.277Z,4.50
2022-09-10T17:08:41.858Z,3.80
2022-09-10T17:10:44.604Z,4.93
2022-09-10T17:12:47.169Z,4.17
2022-09-10T17:14:50.053Z,5.03
2022-09-10T17:16:53.075Z,4.73
2022-09-10T17:18:56.870Z,5.43
2022-09-10T17:20:59.444Z,5.40
2022-09-10T17:23:03.558Z,5.37
2022-09-10T17:25:06.936Z,5.03
2022-09-10T17:27:11.349Z,4.73
2022-09-10T17:29:15.601Z,4.73
2022-09-10T17:31:21.350Z,4.70
2022-09-10T17:33:33.332Z,4.70
2022-09-10T17:35:35.910Z,4.93
2022-09-10T17:37:38.631Z,4.87
2022-09-10T17:39:42.753Z,5.07
2022-09-10T17:41:45.558Z,4.50
2022-09-10T17:43:48.125Z,4.20
2022-09-10T17:45:50.721Z,5.10
2022-09-10T17:47:53.307Z,5.10
2022-09-10T17:49:56.231Z,5.07
2022-09-10T17:52:00.109Z,5.10
2022-09-10T17:54:03.522Z,4.73
2022-09-10T17:56:08.410Z,4.23
2022-09-10T17:58:11.720Z,4.77
2022-09-10T18:00:14.979Z,4.80
2022-09-10T18:02:18.241Z,4.73
2022-09-10T18:04:21.498Z,5.30
2022-09-10T18:06:25.107Z,4.53
2022-09-10T18:08:27.657Z,4.30
2022-09-10T18:10:30.682Z,5.53
2022-09-10T18:12:34.537Z,4.50
2022-09-10T18:14:38.445Z,5.00
2022-09-10T18:16:41.067Z,4.13
2022-09-10T18:18:45.457Z,4.47
2022-09-10T18:20:48.047Z,4.30
2022-09-10T18:22:50.655Z,4.57
2022-09-10T18:24:53.325Z,4.20
2022-09-10T18:26:57.279Z,5.97
2022-09-10T18:29:01.958Z,4.93
2022-09-10T18:31:04.957Z,5.00
2022-09-10T18:33:07.844Z,4.93
2022-09-10T18:35:10.804Z,5.13
2022-09-10T18:37:13.750Z,5.87
2022-09-10T18:39:16.871Z,4.57
2022-09-10T18:41:21.164Z,4.67
2022-09-10T18:43:23.938Z,5.00
2022-09-10T18:45:27.934Z,4.60
2022-09-10T18:47:44.204Z,5.27
2022-09-10T18:49:49.330Z,5.20
2022-09-10T18:51:53.003Z,5.30
2022-09-10T18:53:56.523Z,5.13
2022-09-10T18:55:59.280Z,5.70
2022-09-10T18:58:02.813Z,5.63
2022-09-10T19:00:06.406Z,5.90
2022-09-10T19:02:12.377Z,7.50
2022-09-10T19:04:15.948Z,6.17
2022-09-10T19:06:19.674Z,6.30
2022-09-10T19:08:22.720Z,6.10
2022-09-10T19:10:25.291Z,6.33
2022-09-10T19:12:27.846Z,5.50
2022-09-10T19:14:31.093Z,5.57
2022-09-10T19:16:34.935Z,7.03
2022-09-10T19:18:41.621Z,5.43
2022-09-10T19:20:44.198Z,5.40
2022-09-10T19:22:46.744Z,6.27
2022-09-10T19:24:54.914Z,5.77
2022-09-10T19:26:58.312Z,6.30
2022-09-10T19:29:01.952Z,6.03
2022-09-10T19:31:04.925Z,6.00
2022-09-10T19:33:08.012Z,5.70
2022-09-10T19:35:23.528Z,6.63
2022-09-10T19:37:26.228Z,5.40
2022-09-10T19:39:28.779Z,6.13
2022-09-10T19:41:32.069Z,5.80
2022-09-10T19:43:36.197Z,5.27
2022-09-10T19:45:38.814Z,5.60
2022-09-10T19:47:42.923Z,5.30
2022-09-10T19:49:45.973Z,5.17
2022-09-10T19:51:49.811Z,8.50
2022-09-10T19:53:52.407Z,6.60
2022-09-10T19:55:55.005Z,4.70
2022-09-10T19:57:59.272Z,5.10
2022-09-10T20:00:01.942Z,5.17
2022-09-10T20:02:04.605Z,5.50
2022-09-10T20:04:08.570Z,5.20
2022-09-10T20:06:12.374Z,5.57
2022-09-10T20:08:16.203Z,5.57
2022-09-10T20:10:18.766Z,4.80
2022-09-10T20:12:22.552Z,5.20
2022-09-10T20:14:25.567Z,5.57
2022-09-10T20:16:29.862Z,5.20
2022-09-10T20:18:33.071Z,5.20
2022-09-10T20:20:35.947Z,5.30
2022-09-10T20:22:38.878Z,5.43
2022-09-10T20:24:42.796Z,5.77
2022-09-10T20:26:46.321Z,4.40
2022-09-10T20:28:51.983Z,5.60
2022-09-10T20:30:56.274Z,5.53
2022-09-10T20:32:58.942Z,6.00
2022-09-10T20:35:02.709Z,5.90
2022-09-10T20:37:08.466Z,5.70
2022-09-10T20:39:12.096Z,5.57
2022-09-10T20:41:16.359Z,6.20
2022-09-10T20:43:21.183Z,6.10
2022-09-10T20:45:24.456Z,6.07
2022-09-10T20:47:29.383Z,5.80
2022-09-10T20:49:32.091Z,6.80
2022-09-10T20:51:36.797Z,6.10
2022-09-10T20:53:39.868Z,6.03
2022-09-10T20:55:42.452Z,5.80
2022-09-10T20:57:46.301Z,6.37
2022-09-10T20:59:49.864Z,6.53
2022-09-10T21:01:52.561Z,6.40
2022-09-10T21:03:57.178Z,6.73
2022-09-10T21:05:59.806Z,6.90
2022-09-10T21:08:03.581Z,6.97
2022-09-10T21:10:06.999Z,6.27
2022-09-10T21:12:10.757Z,6.30
2022-09-10T21:14:14.982Z,6.60
2022-09-10T21:16:18.738Z,7.03
2022-09-10T21:18:21.357Z,6.50
2022-09-10T21:20:24.317Z,6.80
2022-09-10T21:22:28.799Z,6.23
2022-09-10T21:24:39.325Z,6.37
2022-09-10T21:26:43.234Z,6.77
2022-09-10T21:28:46.285Z,6.70
2022-09-10T21:30:50.174Z,7.27
2022-09-10T21:32:52.841Z,6.70
2022-09-10T21:34:55.453Z,6.67
2022-09-10T21:36:58.532Z,6.93
2022-09-10T21:39:01.783Z,6.80
2022-09-10T21:41:04.925Z,6.30
2022-09-10T21:43:07.468Z,6.27
2022-09-10T21:45:11.208Z,7.87
2022-09-10T21:47:15.318Z,6.73
2022-09-10T21:49:18.324Z,6.43
2022-09-10T21:51:21.227Z,6.87
2022-09-10T21:53:24.202Z,7.23
2022-09-10T21:55:26.739Z,7.33
2022-09-10T21:57:29.306Z,6.90
2022-09-10T21:59:31.850Z,7.80
2022-09-10T22:01:35.047Z,7.80
2022-09-10T22:03:39.243Z,7.20
2022-09-10T22:05:41.783Z,7.87
2022-09-10T22:07:44.328Z,7.57
2022-09-10T22:09:47.494Z,7.57
2022-09-10T22:11:51.975Z,7.87
2022-09-10T22:13:56.043Z,8.03
2022-09-10T22:15:59.434Z,7.70
2022-09-10T22:18:02.411Z,7.37
2022-09-10T22:20:06.991Z,7.03
2022-09-10T22:22:11.154Z,7.87
2022-09-10T22:24:14.687Z,8.13
2022-09-10T22:26:18.798Z,7.43
2022-09-10T22:28:21.574Z,8.30
2022-09-10T22:30:24.145Z,8.37
2022-09-10T22:32:27.198Z,8.43
2022-09-10T22:34:30.200Z,7.80
2022-09-10T22:36:34.657Z,8.13
2022-09-10T22:38:37.223Z,7.63
2022-09-10T22:40:39.794Z,7.40
2022-09-10T22:42:42.738Z,7.97
2022-09-10T22:44:45.318Z,8.23
2022-09-10T22:46:48.056Z,8.43
2022-09-10T22:48:50.691Z,8.57
2022-09-10T22:50:53.641Z,8.03
2022-09-10T22:52:57.485Z,8.63
2022-09-10T22:55:00.029Z,8.07
2022-09-10T22:57:02.624Z,8.43
2022-09-10T22:59:06.325Z,8.77
2022-09-10T23:01:09.695Z,8.07
2022-09-10T23:03:12.266Z,8.70
2022-09-10T23:05:14.943Z,8.83
2022-09-10T23:07:18.189Z,11.10
2022-09-10T23:09:22.033Z,8.43
2022-09-10T23:11:25.281Z,9.30
2022-09-10T23:13:28.252Z,9.40
2022-09-10T23:15:37.778Z,9.87
2022-09-10T23:17:40.409Z,9.27
2022-09-10T23:19:43.202Z,8.90
2022-09-10T23:21:47.303Z,9.93
2022-09-10T23:23:50.936Z,8.63
2022-09-10T23:25:55.943Z,9.40
2022-09-10T23:27:58.487Z,9.23
2022-09-10T23:30:03.345Z,9.60
2022-09-10T23:32:06.067Z,10.00
2022-09-10T23:34:10.500Z,10.20
2022-09-10T23:36:14.177Z,10.43
2022-09-10T23:38:18.285Z,11.57
2022-09-10T23:40:26.262Z,10.83
2022-09-10T23:42:33.217Z,10.20
2022-09-10T23:44:36.642Z,10.17
2022-09-10T23:46:39.774Z,10.97
2022-09-10T23:48:43.292Z,11.50
2022-09-10T23:50:45.906Z,10.60
2022-09-10T23:52:48.482Z,10.67
2022-09-10T23:54:51.465Z,11.20
2022-09-10T23:56:54.040Z,11.30
2022-09-10T23:58:59.198Z,10.80
